Time;durP1;ratioP1;P1;durP2;ratioP2;P2;SDS_P1;SDS_P2;PMS_P1;PMS_P2;Temp;Humidity;BMP_temperature;BMP_pressure;BME280_temperature;BME280_humidity;BME280_pressure;Samples;Min_cycle;Max_cycle;Signal;HPM_P1;HPM_P2
2021/08/30 00:00:35;;;;;;;9.00;6.30;;;;;;;;;;139852;1180;100289;-74
2021/08/30 00:03:42;;;;;;;9.80;7.30;;;;;;;;;;139867;1180;99069;-73
2021/08/30 00:06:48;;;;;;;10.70;7.10;;;;;;;;;;139887;1180;100260;-74
2021/08/30 00:09:53;;;;;;;10.50;7.30;;;;;;;;;;139898;1180;99136;-74
2021/08/30 00:12:57;;;;;;;11.10;7.70;;;;;;;;;;139845;1180;99072;-74
2021/08/30 00:16:01;;;;;;;9.30;7.50;;;;;;;;;;139815;1180;100288;-74
2021/08/30 00:19:05;;;;;;;10.70;8.00;;;;;;;;;;139859;1180;99060;-74
2021/08/30 00:22:09;;;;;;;9.10;7.20;;;;;;;;;;139848;1180;99212;-74
2021/08/30 00:25:13;;;;;;;10.00;7.00;;;;;;;;;;139792;1180;99133;-74
2021/08/30 00:28:17;;;;;;;13.30;7.80;;;;;;;;;;139897;1180;100246;-74
2021/08/30 00:31:21;;;;;;;8.70;6.80;;;;;;;;;;139841;1180;99196;-72
2021/08/30 00:34:25;;;;;;;12.20;7.50;;;;;;;;;;139821;1180;99065;-73
2021/08/30 00:37:29;;;;;;;11.30;7.40;;;;;;;;;;139833;1180;99123;-72
2021/08/30 00:40:33;;;;;;;12.20;7.90;;;;;;;;;;139867;1180;100329;-74
2021/08/30 00:43:37;;;;;;;11.50;8.00;;;;;;;;;;140000;1180;100279;-74
2021/08/30 00:46:41;;;;;;;11.50;7.10;;;;;;;;;;139971;1180;100287;-73
2021/08/30 00:49:44;;;;;;;9.10;7.00;;;;;;;;;;139931;1180;99068;-74
2021/08/30 00:52:51;;;;;;;10.60;7.30;;;;;;;;;;139797;1180;99161;-72
2021/08/30 00:55:55;;;;;;;10.10;7.30;;;;;;;;;;139929;1180;99119;-73
2021/08/30 00:58:59;;;;;;;9.20;7.10;;;;;;;;;;139927;1180;100223;-74
2021/08/30 01:02:03;;;;;;;10.80;7.50;;;;;;;;;;139935;1180;100421;-73
2021/08/30 01:05:08;;;;;;;10.70;8.20;;;;;;;;;;140012;1180;99686;-71
2021/08/30 01:08:16;;;;;;;12.00;8.30;;;;;;;;;;139967;1180;99147;-72
2021/08/30 01:11:24;;;;;;;11.10;7.00;;;;;;;;;;139857;1180;99519;-72
2021/08/30 01:14:29;;;;;;;11.20;6.90;;;;;;;;;;139842;1180;99096;-74
2021/08/30 01:17:34;;;;;;;8.30;6.90;;;;;;;;;;139985;1180;99110;-74
2021/08/30 01:20:45;;;;;;;11.60;7.10;;;;;;;;;;139995;1180;99081;-73
2021/08/30 01:23:51;;;;;;;11.50;7.70;;;;;;;;;;140019;1180;99129;-74
2021/08/30 01:26:56;;;;;;;13.20;8.50;;;;;;;;;;140061;1180;99165;-73
2021/08/30 01:30:03;;;;;;;10.50;8.00;;;;;;;;;;140138;1180;99074;-74
2021/08/30 01:33:07;;;;;;;12.00;7.70;;;;;;;;;;140118;1180;99212;-75
2021/08/30 01:36:11;;;;;;;10.00;7.60;;;;;;;;;;140071;1180;100232;-74
2021/08/30 01:39:16;;;;;;;9.10;6.50;;;;;;;;;;140104;1180;99195;-75
2021/08/30 01:42:20;;;;;;;9.10;7.20;;;;;;;;;;140098;1180;99069;-73
2021/08/30 01:45:25;;;;;;;10.10;7.70;;;;;;;;;;140077;1180;100519;-73
2021/08/30 01:48:29;;;;;;;11.40;8.10;;;;;;;;;;140027;1180;100428;-74
2021/08/30 01:51:34;;;;;;;14.20;8.10;;;;;;;;;;140056;1180;100451;-73
2021/08/30 01:54:38;;;;;;;14.00;8.50;;;;;;;;;;140041;1180;100948;-73
2021/08/30 02:00:42;;;;;;;12.70;8.80;;;;;;;;;;140119;1180;100477;-75
2021/08/30 02:01:10;;;;;;;9.80;7.10;;;;;;;;;;140059;1180;100461;-74
2021/08/30 02:04:14;;;;;;;10.30;7.00;;;;;;;;;;140067;1180;101045;-75
2021/08/30 02:07:18;;;;;;;13.90;8.40;;;;;;;;;;140120;1180;100844;-75
2021/08/30 02:10:22;;;;;;;12.00;8.80;;;;;;;;;;140023;1180;100560;-75
2021/08/30 02:13:27;;;;;;;10.60;8.30;;;;;;;;;;140062;1180;100519;-74
2021/08/30 02:16:31;;;;;;;13.00;9.00;;;;;;;;;;140109;1180;100525;-73
2021/08/30 02:19:41;;;;;;;10.10;8.20;;;;;;;;;;140007;1180;100647;-73
2021/08/30 02:22:46;;;;;;;9.70;7.10;;;;;;;;;;139853;1181;100425;-72
2021/08/30 02:25:51;;;;;;;11.20;6.60;;;;;;;;;;140077;1181;100435;-74
2021/08/30 02:28:55;;;;;;;9.80;8.20;;;;;;;;;;140103;1180;100425;-72
2021/08/30 02:32:02;;;;;;;14.50;8.70;;;;;;;;;;140029;1180;100429;-73
2021/08/30 02:35:07;;;;;;;10.50;7.90;;;;;;;;;;140067;1180;100509;-73
2021/08/30 02:38:14;;;;;;;9.90;8.40;;;;;;;;;;140077;1180;100547;-74
2021/08/30 02:41:18;;;;;;;9.90;8.40;;;;;;;;;;140094;1180;100506;-74
2021/08/30 02:44:22;;;;;;;9.30;7.00;;;;;;;;;;140065;1180;100518;-74
2021/08/30 02:47:27;;;;;;;9.10;7.20;;;;;;;;;;140022;1180;100451;-76
2021/08/30 02:50:31;;;;;;;11.20;7.70;;;;;;;;;;140068;1180;100413;-74
2021/08/30 02:53:36;;;;;;;10.90;8.20;;;;;;;;;;140162;1180;100432;-73
2021/08/30 02:56:41;;;;;;;8.90;8.00;;;;;;;;;;140111;1180;101127;-73
2021/08/30 02:59:45;;;;;;;11.50;8.60;;;;;;;;;;140100;1180;100486;-75
2021/08/30 03:02:48;;;;;;;12.50;8.00;;;;;;;;;;140027;1180;100938;-77
2021/08/30 03:05:53;;;;;;;8.00;6.80;;;;;;;;;;140281;1180;100499;-73
2021/08/30 03:08:57;;;;;;;8.10;6.80;;;;;;;;;;140298;1180;100503;-75
2021/08/30 03:12:02;;;;;;;10.20;7.70;;;;;;;;;;140478;1180;100534;-75
2021/08/30 03:15:08;;;;;;;10.30;8.80;;;;;;;;;;140253;1180;100441;-74
2021/08/30 03:18:13;;;;;;;10.90;8.70;;;;;;;;;;141195;1178;100432;-75
2021/08/30 03:21:18;;;;;;;13.00;9.00;;;;;;;;;;140292;1180;100534;-75
2021/08/30 03:24:21;;;;;;;12.80;8.40;;;;;;;;;;140275;1180;100407;-74
2021/08/30 03:27:26;;;;;;;9.20;7.50;;;;;;;;;;140290;1180;100534;-75
2021/08/30 03:30:30;;;;;;;10.90;7.70;;;;;;;;;;140279;1181;100411;-75
2021/08/30 03:33:34;;;;;;;11.30;7.60;;;;;;;;;;140218;1180;100460;-75
2021/08/30 03:36:39;;;;;;;9.30;7.30;;;;;;;;;;140228;1180;100538;-74
2021/08/30 03:39:44;;;;;;;9.20;8.00;;;;;;;;;;140257;1178;100409;-72
2021/08/30 03:42:48;;;;;;;9.60;8.30;;;;;;;;;;140272;1181;101092;-74
2021/08/30 03:45:53;;;;;;;10.90;8.80;;;;;;;;;;140224;1180;100528;-74
2021/08/30 03:48:57;;;;;;;11.90;7.90;;;;;;;;;;140165;1180;100441;-73
2021/08/30 03:52:01;;;;;;;8.90;7.20;;;;;;;;;;140179;1179;100883;-75
2021/08/30 03:55:07;;;;;;;8.90;8.00;;;;;;;;;;140213;1180;100429;-74
2021/08/30 03:58:11;;;;;;;10.50;8.00;;;;;;;;;;140268;1180;101082;-74
2021/08/30 04:01:18;;;;;;;9.90;7.80;;;;;;;;;;140240;1180;100416;-74
2021/08/30 04:04:24;;;;;;;10.00;8.30;;;;;;;;;;140215;1180;100867;-73
2021/08/30 04:07:28;;;;;;;10.50;9.00;;;;;;;;;;140159;1180;100556;-74
2021/08/30 04:10:33;;;;;;;8.80;7.20;;;;;;;;;;140148;1180;100410;-75
2021/08/30 04:13:38;;;;;;;9.00;7.30;;;;;;;;;;140227;1180;100482;-76
2021/08/30 04:16:43;;;;;;;11.40;8.10;;;;;;;;;;140180;1180;100573;-74
2021/08/30 04:19:47;;;;;;;10.30;8.80;;;;;;;;;;140231;1180;100406;-74
2021/08/30 04:22:51;;;;;;;12.80;9.30;;;;;;;;;;140262;1180;100509;-72
2021/08/30 04:25:55;;;;;;;12.30;8.90;;;;;;;;;;140106;1180;100403;-70
2021/08/30 04:28:59;;;;;;;10.70;9.60;;;;;;;;;;140107;1180;100432;-73
2021/08/30 04:32:04;;;;;;;10.30;8.60;;;;;;;;;;140172;1180;100451;-72
2021/08/30 04:35:09;;;;;;;9.30;7.70;;;;;;;;;;140224;1180;100480;-72
2021/08/30 04:38:13;;;;;;;9.20;8.20;;;;;;;;;;140309;1180;100489;-68
2021/08/30 04:41:17;;;;;;;10.50;8.10;;;;;;;;;;140423;1180;100621;-70
2021/08/30 04:44:21;;;;;;;9.50;8.40;;;;;;;;;;140103;1180;100503;-70
2021/08/30 04:47:52;;;;;;;9.50;8.00;;;;;;;;;;141344;1172;100525;-69
2021/08/30 04:50:56;;;;;;;8.50;7.60;;;;;;;;;;139876;1181;100427;-70
2021/08/30 04:54:00;;;;;;;9.80;7.70;;;;;;;;;;140019;1180;100423;-70
2021/08/30 04:57:04;;;;;;;12.90;9.10;;;;;;;;;;139837;1180;100528;-70
2021/08/30 05:00:09;;;;;;;12.20;9.80;;;;;;;;;;139743;1180;100544;-70
2021/08/30 05:03:13;;;;;;;13.30;10.90;;;;;;;;;;139768;1180;100467;-68
2021/08/30 05:06:17;;;;;;;13.00;11.30;;;;;;;;;;140021;1179;100540;-68
2021/08/30 05:09:21;;;;;;;14.30;11.30;;;;;;;;;;140054;1179;100420;-68
2021/08/30 05:12:26;;;;;;;11.60;10.20;;;;;;;;;;139664;1181;100414;-71
2021/08/30 05:15:30;;;;;;;11.70;9.70;;;;;;;;;;140124;1179;100459;-69
2021/08/30 05:18:34;;;;;;;12.40;11.00;;;;;;;;;;139746;1180;100401;-70
2021/08/30 05:21:38;;;;;;;13.20;11.80;;;;;;;;;;139999;1181;100519;-69
2021/08/30 05:24:42;;;;;;;13.00;11.50;;;;;;;;;;139985;1180;100429;-69
2021/08/30 05:27:51;;;;;;;14.80;12.90;;;;;;;;;;139945;1179;100518;-73
2021/08/30 05:30:55;;;;;;;16.20;14.30;;;;;;;;;;140005;1181;100475;-69
2021/08/30 05:33:58;;;;;;;16.50;14.70;;;;;;;;;;139932;1181;100514;-69
2021/08/30 05:37:02;;;;;;;20.10;17.90;;;;;;;;;;140278;1180;100431;-70
2021/08/30 05:40:07;;;;;;;22.20;19.80;;;;;;;;;;140073;1180;100471;-67
2021/08/30 05:43:11;;;;;;;25.20;22.50;;;;;;;;;;140078;1180;100459;-69
2021/08/30 05:46:16;;;;;;;25.00;20.30;;;;;;;;;;139952;1181;100403;-69
2021/08/30 05:49:21;;;;;;;22.80;19.00;;;;;;;;;;139945;1180;100439;-68
2021/08/30 05:52:25;;;;;;;22.40;19.90;;;;;;;;;;139922;1179;100425;-69
2021/08/30 05:55:29;;;;;;;21.50;19.20;;;;;;;;;;139956;1179;100423;-69
2021/08/30 05:58:33;;;;;;;21.50;19.20;;;;;;;;;;139913;1179;100458;-69
2021/08/30 06:01:38;;;;;;;21.90;19.10;;;;;;;;;;139923;1180;100511;-69
2021/08/30 06:04:41;;;;;;;19.10;17.00;;;;;;;;;;139950;1180;100429;-71
2021/08/30 06:07:45;;;;;;;23.80;19.40;;;;;;;;;;140001;1179;100537;-69
2021/08/30 06:10:49;;;;;;;21.50;19.00;;;;;;;;;;139950;1179;101485;-69
2021/08/30 06:13:53;;;;;;;21.30;19.00;;;;;;;;;;139866;1180;100554;-70
2021/08/30 06:16:57;;;;;;;18.70;16.20;;;;;;;;;;139940;1180;100538;-70
2021/08/30 06:20:01;;;;;;;16.30;14.50;;;;;;;;;;139926;1179;100435;-70
2021/08/30 06:23:04;;;;;;;18.60;16.40;;;;;;;;;;139867;1180;100439;-69
2021/08/30 06:26:08;;;;;;;18.80;16.80;;;;;;;;;;139933;1180;101117;-70
2021/08/30 06:29:12;;;;;;;19.40;17.30;;;;;;;;;;139934;1180;100541;-72
2021/08/30 06:32:17;;;;;;;20.30;18.20;;;;;;;;;;139974;1180;100419;-70
2021/08/30 06:35:21;;;;;;;17.00;15.20;;;;;;;;;;139910;1180;100475;-69
2021/08/30 06:38:25;;;;;;;17.00;15.20;;;;;;;;;;139974;1181;100426;-68
2021/08/30 06:41:29;;;;;;;16.40;14.70;;;;;;;;;;140049;1179;100615;-70
2021/08/30 06:44:33;;;;;;;17.40;15.60;;;;;;;;;;139969;1180;100515;-69
2021/08/30 06:47:36;;;;;;;17.80;15.90;;;;;;;;;;139976;1180;100516;-70
2021/08/30 06:50:42;;;;;;;17.90;15.90;;;;;;;;;;140121;1180;100513;-70
2021/08/30 06:53:46;;;;;;;16.40;14.80;;;;;;;;;;140041;1180;100505;-69
2021/08/30 06:56:50;;;;;;;16.10;13.70;;;;;;;;;;139925;1180;100439;-70
2021/08/30 06:59:54;;;;;;;15.40;13.90;;;;;;;;;;139876;1179;100529;-69
2021/08/30 07:02:58;;;;;;;17.90;14.40;;;;;;;;;;139990;1180;100506;-70
2021/08/30 07:06:02;;;;;;;18.10;15.30;;;;;;;;;;140045;1180;100448;-69
2021/08/30 07:09:05;;;;;;;16.00;14.40;;;;;;;;;;140012;1180;100533;-71
2021/08/30 07:12:10;;;;;;;16.10;14.10;;;;;;;;;;140053;1180;100425;-70
2021/08/30 07:15:14;;;;;;;13.20;11.90;;;;;;;;;;139878;1180;100476;-70
2021/08/30 07:18:18;;;;;;;14.00;12.60;;;;;;;;;;139959;1179;100432;-69
2021/08/30 07:21:23;;;;;;;14.40;12.90;;;;;;;;;;140021;1179;100512;-69
2021/08/30 07:24:27;;;;;;;13.00;11.60;;;;;;;;;;139965;1179;100516;-70
2021/08/30 07:27:31;;;;;;;12.00;10.80;;;;;;;;;;140074;1180;100428;-71
2021/08/30 07:30:34;;;;;;;13.60;12.30;;;;;;;;;;139963;1179;100623;-70
2021/08/30 07:33:38;;;;;;;13.00;11.40;;;;;;;;;;139987;1179;100422;-70
2021/08/30 07:36:42;;;;;;;12.30;10.60;;;;;;;;;;139887;1179;100541;-70
2021/08/30 07:39:46;;;;;;;11.00;9.90;;;;;;;;;;140002;1179;100438;-71
2021/08/30 07:42:50;;;;;;;10.30;9.30;;;;;;;;;;140046;1180;100438;-71
2021/08/30 07:45:54;;;;;;;11.50;10.10;;;;;;;;;;139958;1179;100503;-71
2021/08/30 07:48:58;;;;;;;11.50;10.40;;;;;;;;;;139908;1179;100448;-70
2021/08/30 07:52:02;;;;;;;10.90;9.80;;;;;;;;;;139902;1181;100511;-71
2021/08/30 07:55:07;;;;;;;10.90;9.90;;;;;;;;;;140040;1179;100526;-71
2021/08/30 07:58:15;;;;;;;10.60;9.60;;;;;;;;;;139982;1179;100440;-70
2021/08/30 08:01:19;;;;;;;9.90;8.90;;;;;;;;;;140028;1179;100675;-69
2021/08/30 08:04:22;;;;;;;9.70;8.80;;;;;;;;;;139955;1179;100454;-71
2021/08/30 08:07:26;;;;;;;9.00;8.20;;;;;;;;;;140023;1180;100512;-71
2021/08/30 08:10:30;;;;;;;9.80;8.80;;;;;;;;;;140026;1179;100404;-70
2021/08/30 08:13:34;;;;;;;9.80;8.80;;;;;;;;;;139997;1180;100533;-71
2021/08/30 08:16:38;;;;;;;9.60;8.70;;;;;;;;;;139911;1179;100442;-71
2021/08/30 08:19:41;;;;;;;9.10;8.20;;;;;;;;;;139965;1180;100542;-68
2021/08/30 08:22:45;;;;;;;9.80;8.90;;;;;;;;;;139961;1179;100441;-70
2021/08/30 08:25:49;;;;;;;9.80;8.90;;;;;;;;;;139973;1179;100519;-70
2021/08/30 08:28:54;;;;;;;9.90;9.00;;;;;;;;;;139915;1179;100517;-71
2021/08/30 08:31:58;;;;;;;8.80;8.00;;;;;;;;;;139970;1180;100528;-71
2021/08/30 08:35:02;;;;;;;9.20;8.30;;;;;;;;;;140043;1179;100528;-71
2021/08/30 08:38:06;;;;;;;12.30;10.50;;;;;;;;;;140043;1179;100441;-69
2021/08/30 08:41:10;;;;;;;11.20;10.20;;;;;;;;;;139995;1179;101269;-69
2021/08/30 08:44:15;;;;;;;10.70;9.60;;;;;;;;;;139831;1179;100557;-69
2021/08/30 08:47:19;;;;;;;10.30;9.20;;;;;;;;;;139978;1179;100436;-71
2021/08/30 08:50:26;;;;;;;10.40;8.70;;;;;;;;;;140225;1179;100464;-69
2021/08/30 08:53:30;;;;;;;8.90;8.00;;;;;;;;;;140018;1179;100399;-69
2021/08/30 08:56:34;;;;;;;10.90;9.40;;;;;;;;;;139994;1180;100531;-70
2021/08/30 08:59:39;;;;;;;10.60;9.60;;;;;;;;;;140156;1179;100452;-69
2021/08/30 09:02:44;;;;;;;10.00;9.00;;;;;;;;;;139965;1179;101030;-71
2021/08/30 09:06:00;;;;;;;11.10;9.70;;;;;;;;;;140016;1179;100452;-70
2021/08/30 09:09:06;;;;;;;12.30;10.00;;;;;;;;;;140137;1180;100501;-70
2021/08/30 09:12:20;;;;;;;10.50;9.40;;;;;;;;;;139943;1179;100423;-71
2021/08/30 09:15:26;;;;;;;11.40;10.20;;;;;;;;;;139953;1181;100518;-71
2021/08/30 09:18:31;;;;;;;11.50;10.40;;;;;;;;;;140006;1179;100513;-70
2021/08/30 09:21:36;;;;;;;15.00;11.10;;;;;;;;;;140041;1179;100445;-70
2021/08/30 09:24:40;;;;;;;12.20;10.90;;;;;;;;;;140055;1179;100629;-68
2021/08/30 09:27:46;;;;;;;13.10;11.70;;;;;;;;;;139953;1179;100523;-70
2021/08/30 09:30:56;;;;;;;11.80;10.60;;;;;;;;;;139979;1180;100423;-70
2021/08/30 09:34:03;;;;;;;11.70;10.10;;;;;;;;;;140135;1179;100458;-71
2021/08/30 09:37:07;;;;;;;11.70;10.60;;;;;;;;;;140139;1179;100419;-70
2021/08/30 09:40:12;;;;;;;13.20;11.30;;;;;;;;;;140073;1180;100553;-68
2021/08/30 09:43:21;;;;;;;14.50;12.10;;;;;;;;;;139939;1179;100423;-70
2021/08/30 09:46:27;;;;;;;13.30;11.80;;;;;;;;;;140093;1180;101114;-70
2021/08/30 09:49:31;;;;;;;15.40;13.70;;;;;;;;;;140100;1179;100512;-70
2021/08/30 09:52:35;;;;;;;17.00;11.90;;;;;;;;;;140033;1184;100449;-69
2021/08/30 09:55:39;;;;;;;13.10;11.80;;;;;;;;;;140004;1180;100474;-71
2021/08/30 09:58:44;;;;;;;13.30;11.90;;;;;;;;;;140069;1180;100436;-70
2021/08/30 10:01:49;;;;;;;14.40;12.90;;;;;;;;;;140009;1179;100439;-70
2021/08/30 10:04:53;;;;;;;15.90;14.30;;;;;;;;;;140135;1179;100891;-70
2021/08/30 10:07:59;;;;;;;15.50;13.90;;;;;;;;;;140087;1180;100422;-70
2021/08/30 10:11:03;;;;;;;13.70;12.30;;;;;;;;;;140043;1180;100529;-68
2021/08/30 10:14:08;;;;;;;13.50;12.10;;;;;;;;;;140029;1180;100445;-70
2021/08/30 10:17:12;;;;;;;14.10;12.60;;;;;;;;;;139978;1180;100516;-70
2021/08/30 10:20:18;;;;;;;15.80;13.20;;;;;;;;;;140024;1180;100544;-69
2021/08/30 10:23:22;;;;;;;16.60;14.90;;;;;;;;;;139895;1180;100480;-70
2021/08/30 10:26:36;;;;;;;15.60;13.60;;;;;;;;;;139710;1180;100466;-70
2021/08/30 10:29:40;;;;;;;12.90;11.60;;;;;;;;;;139846;1180;100416;-70
2021/08/30 10:32:45;;;;;;;13.50;12.10;;;;;;;;;;139826;1179;101054;-71
2021/08/30 10:35:49;;;;;;;14.50;13.00;;;;;;;;;;140120;1180;100528;-71
2021/08/30 10:39:00;;;;;;;15.30;13.80;;;;;;;;;;140152;1180;100824;-71
2021/08/30 10:42:05;;;;;;;15.60;14.00;;;;;;;;;;140119;1179;100419;-68
2021/08/30 10:45:10;;;;;;;14.30;12.80;;;;;;;;;;140083;1180;100443;-71
2021/08/30 10:48:16;;;;;;;12.40;10.60;;;;;;;;;;139995;1180;100453;-70
2021/08/30 10:51:20;;;;;;;12.20;11.00;;;;;;;;;;139965;1180;100435;-70
2021/08/30 10:54:24;;;;;;;13.20;11.80;;;;;;;;;;139968;1180;100506;-71
2021/08/30 10:57:35;;;;;;;14.30;12.80;;;;;;;;;;139988;1180;100519;-70
2021/08/30 11:00:39;;;;;;;13.50;12.00;;;;;;;;;;139981;1180;100426;-70
2021/08/30 11:03:43;;;;;;;13.20;11.90;;;;;;;;;;140016;1180;100484;-71
2021/08/30 11:06:46;;;;;;;13.30;12.00;;;;;;;;;;140013;1180;100487;-70
2021/08/30 11:09:50;;;;;;;14.10;12.70;;;;;;;;;;140101;1180;100413;-70
2021/08/30 11:12:54;;;;;;;14.60;13.20;;;;;;;;;;139982;1180;100560;-71
2021/08/30 11:15:58;;;;;;;22.20;19.80;;;;;;;;;;140032;1180;100550;-70
2021/08/30 11:19:03;;;;;;;19.90;17.80;;;;;;;;;;140094;1180;100449;-71
2021/08/30 11:22:08;;;;;;;17.40;15.60;;;;;;;;;;140021;1183;100552;-71
2021/08/30 11:25:12;;;;;;;15.00;13.40;;;;;;;;;;140195;1180;100473;-69
2021/08/30 11:28:18;;;;;;;15.10;13.50;;;;;;;;;;140055;1180;100545;-70
2021/08/30 11:31:23;;;;;;;14.30;12.80;;;;;;;;;;140054;1180;100425;-69
2021/08/30 11:34:28;;;;;;;14.30;12.90;;;;;;;;;;140047;1180;100426;-71
2021/08/30 11:37:33;;;;;;;15.10;11.80;;;;;;;;;;140025;1180;100456;-70
2021/08/30 11:40:37;;;;;;;12.20;11.00;;;;;;;;;;140010;1180;100454;-70
2021/08/30 11:43:41;;;;;;;13.90;12.40;;;;;;;;;;140049;1180;100410;-71
2021/08/30 11:46:46;;;;;;;13.00;11.70;;;;;;;;;;139982;1180;100416;-70
2021/08/30 11:49:51;;;;;;;14.30;12.80;;;;;;;;;;140054;1180;100612;-70
2021/08/30 11:52:59;;;;;;;14.40;12.90;;;;;;;;;;139973;1180;100526;-70
2021/08/30 11:56:03;;;;;;;13.50;12.20;;;;;;;;;;140051;1181;100445;-72
2021/08/30 11:59:07;;;;;;;13.40;12.00;;;;;;;;;;140007;1180;100471;-71
2021/08/30 12:02:11;;;;;;;16.30;13.60;;;;;;;;;;140025;1180;100521;-71
2021/08/30 12:05:15;;;;;;;25.80;19.30;;;;;;;;;;140056;1180;100519;-71
2021/08/30 12:08:21;;;;;;;48.50;25.00;;;;;;;;;;139963;1179;100514;-71
2021/08/30 12:11:24;;;;;;;29.60;18.80;;;;;;;;;;140015;1180;100503;-70
2021/08/30 12:14:28;;;;;;;24.50;20.40;;;;;;;;;;139987;1180;100412;-70
2021/08/30 12:17:33;;;;;;;19.50;17.40;;;;;;;;;;139949;1184;100423;-71
2021/08/30 12:20:38;;;;;;;24.90;22.40;;;;;;;;;;140033;1180;100434;-68
2021/08/30 12:23:42;;;;;;;17.50;15.70;;;;;;;;;;140025;1180;100501;-70
2021/08/30 12:26:47;;;;;;;22.20;19.90;;;;;;;;;;140035;1181;100531;-71
2021/08/30 12:29:50;;;;;;;22.20;19.80;;;;;;;;;;140015;1180;100506;-70
2021/08/30 12:33:05;;;;;;;15.50;13.50;;;;;;;;;;139993;1180;100391;-70
2021/08/30 12:36:09;;;;;;;13.30;11.90;;;;;;;;;;139987;1181;100409;-70
2021/08/30 12:39:13;;;;;;;15.00;13.40;;;;;;;;;;140141;1180;100416;-70
2021/08/30 12:42:17;;;;;;;18.20;16.30;;;;;;;;;;140029;1180;100450;-69
2021/08/30 12:45:21;;;;;;;18.40;16.50;;;;;;;;;;139978;1181;100577;-70
2021/08/30 12:48:27;;;;;;;24.10;21.70;;;;;;;;;;140021;1180;100567;-70
2021/08/30 12:51:32;;;;;;;22.80;20.50;;;;;;;;;;140000;1180;100487;-70
2021/08/30 12:54:36;;;;;;;22.10;19.80;;;;;;;;;;140107;1180;100522;-70
2021/08/30 12:57:39;;;;;;;21.80;19.50;;;;;;;;;;140025;1180;100448;-71
2021/08/30 13:00:44;;;;;;;26.60;23.90;;;;;;;;;;140033;1180;100515;-71
2021/08/30 13:03:47;;;;;;;28.50;25.50;;;;;;;;;;140092;1180;102031;-70
2021/08/30 13:06:51;;;;;;;77.90;50.00;;;;;;;;;;139936;1181;100503;-71
2021/08/30 13:09:57;;;;;;;25.30;22.20;;;;;;;;;;139976;1179;100879;-70
2021/08/30 13:13:01;;;;;;;22.90;20.40;;;;;;;;;;140070;1180;100503;-71
2021/08/30 13:16:05;;;;;;;43.40;38.70;;;;;;;;;;139996;1180;100522;-71
2021/08/30 13:19:09;;;;;;;32.10;28.70;;;;;;;;;;139923;1180;100430;-71
2021/08/30 13:22:13;;;;;;;45.90;41.00;;;;;;;;;;139959;1179;100533;-70
2021/08/30 13:25:18;;;;;;;42.90;33.60;;;;;;;;;;139997;1179;100521;-70
2021/08/30 13:28:22;;;;;;;20.00;17.80;;;;;;;;;;140041;1183;100420;-70
2021/08/30 13:31:26;;;;;;;13.70;9.60;;;;;;;;;;139983;1180;100417;-70
2021/08/30 13:34:30;;;;;;;8.20;6.70;;;;;;;;;;139981;1180;100467;-70
2021/08/30 13:37:34;;;;;;;6.80;6.00;;;;;;;;;;139972;1180;100448;-70
2021/08/30 13:40:38;;;;;;;7.30;5.90;;;;;;;;;;140002;1180;100528;-70
2021/08/30 13:43:42;;;;;;;5.50;4.70;;;;;;;;;;140039;1186;100509;-70
2021/08/30 13:46:45;;;;;;;4.60;3.80;;;;;;;;;;139958;1179;100415;-70
2021/08/30 13:49:49;;;;;;;3.70;3.30;;;;;;;;;;139995;1180;100596;-69
2021/08/30 13:52:54;;;;;;;7.70;4.60;;;;;;;;;;140035;1180;100519;-70
2021/08/30 13:55:58;;;;;;;7.40;5.00;;;;;;;;;;139943;1180;100503;-71
2021/08/30 13:59:01;;;;;;;5.90;4.10;;;;;;;;;;140061;1180;100521;-70
2021/08/30 14:02:06;;;;;;;6.10;4.40;;;;;;;;;;139939;1180;100848;-71
2021/08/30 14:05:10;;;;;;;6.30;4.80;;;;;;;;;;139959;1180;100466;-70
2021/08/30 14:08:14;;;;;;;6.20;4.20;;;;;;;;;;140104;1180;100893;-70
2021/08/30 14:11:18;;;;;;;6.20;4.10;;;;;;;;;;140051;1180;100518;-69
2021/08/30 14:14:22;;;;;;;5.50;3.90;;;;;;;;;;140064;1180;100406;-71
2021/08/30 14:17:26;;;;;;;4.50;3.50;;;;;;;;;;140028;1181;100406;-71
2021/08/30 14:20:30;;;;;;;5.20;4.00;;;;;;;;;;140065;1180;100547;-71
2021/08/30 14:23:33;;;;;;;5.70;4.10;;;;;;;;;;140016;1179;100506;-70
2021/08/30 14:26:37;;;;;;;5.10;4.60;;;;;;;;;;140050;1180;100523;-71
2021/08/30 14:29:41;;;;;;;5.70;4.50;;;;;;;;;;140023;1183;100511;-70
2021/08/30 14:32:45;;;;;;;5.00;4.50;;;;;;;;;;140103;1180;100960;-71
2021/08/30 14:35:49;;;;;;;5.60;5.00;;;;;;;;;;139999;1180;100459;-71
2021/08/30 14:38:53;;;;;;;6.50;5.10;;;;;;;;;;139998;1181;100545;-70
2021/08/30 14:41:56;;;;;;;6.70;6.00;;;;;;;;;;139960;1180;100523;-70
2021/08/30 14:45:00;;;;;;;8.20;5.70;;;;;;;;;;140037;1180;101216;-71
2021/08/30 14:48:04;;;;;;;7.40;5.50;;;;;;;;;;140064;1183;100413;-71
2021/08/30 14:51:08;;;;;;;6.70;5.70;;;;;;;;;;140094;1180;100509;-70
2021/08/30 14:54:12;;;;;;;6.70;6.00;;;;;;;;;;140080;1180;100421;-70
2021/08/30 14:57:16;;;;;;;7.60;6.40;;;;;;;;;;140132;1180;100406;-70
2021/08/30 15:00:20;;;;;;;7.10;6.40;;;;;;;;;;140150;1180;100390;-70
2021/08/30 15:03:24;;;;;;;6.40;5.70;;;;;;;;;;140040;1180;100450;-70
2021/08/30 15:06:29;;;;;;;7.60;6.60;;;;;;;;;;140060;1180;100499;-70
2021/08/30 15:09:33;;;;;;;8.80;7.40;;;;;;;;;;140063;1180;100522;-70
2021/08/30 15:12:40;;;;;;;9.60;7.70;;;;;;;;;;140021;1180;100447;-71
2021/08/30 15:15:44;;;;;;;8.30;7.40;;;;;;;;;;140089;1183;100416;-71
2021/08/30 15:18:47;;;;;;;9.30;7.40;;;;;;;;;;140137;1180;100880;-70
2021/08/30 15:21:51;;;;;;;8.10;6.80;;;;;;;;;;140055;1180;100506;-71
2021/08/30 15:24:55;;;;;;;8.60;7.50;;;;;;;;;;140195;1180;100429;-72
2021/08/30 15:28:00;;;;;;;9.10;7.20;;;;;;;;;;140387;1180;100556;-72
2021/08/30 15:31:04;;;;;;;8.90;7.40;;;;;;;;;;140207;1184;100478;-72
2021/08/30 15:34:08;;;;;;;8.20;7.00;;;;;;;;;;140184;1180;100512;-69
2021/08/30 15:37:14;;;;;;;10.20;7.90;;;;;;;;;;140008;1180;101050;-69
2021/08/30 15:40:19;;;;;;;13.30;8.30;;;;;;;;;;139976;1179;100561;-72
2021/08/30 15:43:23;;;;;;;10.10;7.40;;;;;;;;;;140053;1179;101073;-73
2021/08/30 15:46:27;;;;;;;9.60;6.80;;;;;;;;;;140027;1180;100531;-73
2021/08/30 15:49:31;;;;;;;8.40;6.70;;;;;;;;;;139957;1180;100632;-70
2021/08/30 15:52:36;;;;;;;9.20;7.60;;;;;;;;;;139991;1180;100414;-71
2021/08/30 15:55:39;;;;;;;10.50;8.10;;;;;;;;;;139895;1180;100541;-76
2021/08/30 15:58:43;;;;;;;9.60;7.90;;;;;;;;;;140121;1179;100493;-73
2021/08/30 16:01:49;;;;;;;8.90;7.20;;;;;;;;;;139974;1181;100393;-71
2021/08/30 16:04:53;;;;;;;8.10;6.50;;;;;;;;;;139920;1180;101104;-69
2021/08/30 16:07:57;;;;;;;8.90;7.20;;;;;;;;;;140005;1180;100583;-70
2021/08/30 16:11:01;;;;;;;9.50;7.80;;;;;;;;;;139988;1180;100444;-71
2021/08/30 16:14:05;;;;;;;9.30;8.00;;;;;;;;;;140041;1180;100422;-70
2021/08/30 16:17:09;;;;;;;9.80;8.10;;;;;;;;;;139922;1181;100449;-69
2021/08/30 16:20:13;;;;;;;7.90;6.90;;;;;;;;;;139997;1180;100563;-69
2021/08/30 16:23:17;;;;;;;10.70;8.40;;;;;;;;;;140004;1179;100576;-69
2021/08/30 16:26:21;;;;;;;17.60;11.10;;;;;;;;;;139988;1180;100433;-72
2021/08/30 16:29:25;;;;;;;10.40;8.50;;;;;;;;;;139933;1179;100455;-71
2021/08/30 16:32:30;;;;;;;10.10;9.00;;;;;;;;;;140067;1179;100647;-72
2021/08/30 16:35:34;;;;;;;9.80;8.10;;;;;;;;;;140157;1180;100410;-73
2021/08/30 16:38:37;;;;;;;7.90;6.60;;;;;;;;;;140144;1179;100429;-72
2021/08/30 16:41:41;;;;;;;11.10;7.50;;;;;;;;;;140107;1179;100523;-73
2021/08/30 16:44:45;;;;;;;7.40;6.60;;;;;;;;;;140059;1180;100526;-72
2021/08/30 16:47:50;;;;;;;6.10;5.30;;;;;;;;;;140091;1180;100655;-70
2021/08/30 16:50:54;;;;;;;7.10;5.10;;;;;;;;;;140055;1184;101150;-71
2021/08/30 16:53:58;;;;;;;6.00;4.60;;;;;;;;;;140041;1181;100429;-69
2021/08/30 16:57:02;;;;;;;6.10;5.10;;;;;;;;;;140022;1180;100441;-70
2021/08/30 17:00:07;;;;;;;6.70;5.10;;;;;;;;;;140012;1180;101053;-70
2021/08/30 17:03:11;;;;;;;6.10;5.00;;;;;;;;;;140058;1180;100438;-70
2021/08/30 17:06:14;;;;;;;6.40;5.00;;;;;;;;;;140066;1180;101137;-72
2021/08/30 17:09:18;;;;;;;5.30;4.40;;;;;;;;;;140146;1180;100413;-72
2021/08/30 17:12:22;;;;;;;5.30;4.60;;;;;;;;;;140300;1180;100522;-73
2021/08/30 17:15:26;;;;;;;6.50;5.10;;;;;;;;;;140312;1180;100592;-72
2021/08/30 17:18:34;;;;;;;6.50;5.30;;;;;;;;;;140333;1180;100529;-73
2021/08/30 17:21:38;;;;;;;6.60;5.00;;;;;;;;;;140224;1180;100437;-73
2021/08/30 17:24:43;;;;;;;6.00;4.80;;;;;;;;;;140252;1180;100431;-71
2021/08/30 17:27:47;;;;;;;7.60;5.10;;;;;;;;;;140059;1180;100524;-72
2021/08/30 17:30:51;;;;;;;7.40;5.60;;;;;;;;;;139966;1179;100425;-69
2021/08/30 17:33:55;;;;;;;7.80;5.20;;;;;;;;;;140016;1180;101063;-71
2021/08/30 17:36:59;;;;;;;7.00;4.80;;;;;;;;;;140183;1180;100408;-70